sensor_id;sensor_type;location;lat;lon;timestamp;P1;durP1;ratioP1;P2;durP2;ratioP2
30571;SDS011;17348;50.948;10.696;2023-05-07T00:02:57;63.95;;;25.95;;
30571;SDS011;17348;50.948;10.696;2023-05-07T00:06:01;55.63;;;24.58;;
30571;SDS011;17348;50.948;10.696;2023-05-07T00:09:03;58.83;;;25.50;;
30571;SDS011;17348;50.948;10.696;2023-05-07T00:12:06;54.53;;;23.75;;
30571;SDS011;17348;50.948;10.696;2023-05-07T00:15:09;64.63;;;24.73;;
30571;SDS011;17348;50.948;10.696;2023-05-07T00:18:11;52.17;;;23.88;;
30571;SDS011;17348;50.948;10.696;2023-05-07T00:21:15;51.67;;;24.48;;
30571;SDS011;17348;50.948;10.696;2023-05-07T00:24:17;57.50;;;25.55;;
30571;SDS011;17348;50.948;10.696;2023-05-07T00:27:20;54.55;;;24.02;;
30571;SDS011;17348;50.948;10.696;2023-05-07T00:30:22;56.10;;;23.95;;
30571;SDS011;17348;50.948;10.696;2023-05-07T00:33:24;57.58;;;24.75;;
30571;SDS011;17348;50.948;10.696;2023-05-07T00:36:28;62.83;;;25.33;;
30571;SDS011;17348;50.948;10.696;2023-05-07T00:39:31;61.00;;;26.98;;
30571;SDS011;17348;50.948;10.696;2023-05-07T00:42:33;60.88;;;26.13;;
30571;SDS011;17348;50.948;10.696;2023-05-07T00:45:36;54.42;;;23.48;;
30571;SDS011;17348;50.948;10.696;2023-05-07T00:48:39;52.25;;;25.10;;
30571;SDS011;17348;50.948;10.696;2023-05-07T00:51:43;57.25;;;25.70;;
30571;SDS011;17348;50.948;10.696;2023-05-07T00:54:46;62.78;;;26.85;;
30571;SDS011;17348;50.948;10.696;2023-05-07T00:57:49;62.05;;;26.70;;
30571;SDS011;17348;50.948;10.696;2023-05-07T01:00:52;64.88;;;28.13;;
30571;SDS011;17348;50.948;10.696;2023-05-07T01:03:54;60.17;;;26.60;;
30571;SDS011;17348;50.948;10.696;2023-05-07T01:06:59;63.60;;;26.10;;
30571;SDS011;17348;50.948;10.696;2023-05-07T01:10:04;59.13;;;25.27;;
30571;SDS011;17348;50.948;10.696;2023-05-07T01:13:07;58.78;;;26.23;;
30571;SDS011;17348;50.948;10.696;2023-05-07T01:16:10;57.95;;;25.75;;
30571;SDS011;17348;50.948;10.696;2023-05-07T01:19:12;72.05;;;27.67;;
30571;SDS011;17348;50.948;10.696;2023-05-07T01:22:23;68.85;;;27.17;;
30571;SDS011;17348;50.948;10.696;2023-05-07T01:25:30;68.60;;;27.13;;
30571;SDS011;17348;50.948;10.696;2023-05-07T01:28:32;60.70;;;25.80;;
30571;SDS011;17348;50.948;10.696;2023-05-07T01:31:35;63.92;;;26.10;;
30571;SDS011;17348;50.948;10.696;2023-05-07T01:34:38;55.35;;;26.52;;
30571;SDS011;17348;50.948;10.696;2023-05-07T01:37:42;60.25;;;25.20;;
30571;SDS011;17348;50.948;10.696;2023-05-07T01:40:45;62.33;;;27.15;;
30571;SDS011;17348;50.948;10.696;2023-05-07T01:43:48;64.68;;;26.23;;
30571;SDS011;17348;50.948;10.696;2023-05-07T01:46:53;66.60;;;27.38;;
30571;SDS011;17348;50.948;10.696;2023-05-07T01:49:56;64.35;;;26.90;;
30571;SDS011;17348;50.948;10.696;2023-05-07T01:53:01;69.07;;;26.80;;
30571;SDS011;17348;50.948;10.696;2023-05-07T01:56:04;69.22;;;28.13;;
30571;SDS011;17348;50.948;10.696;2023-05-07T01:59:06;69.38;;;26.33;;
30571;SDS011;17348;50.948;10.696;2023-05-07T02:02:09;62.67;;;26.42;;
30571;SDS011;17348;50.948;10.696;2023-05-07T02:05:11;68.75;;;26.00;;
30571;SDS011;17348;50.948;10.696;2023-05-07T02:08:15;68.82;;;25.70;;
30571;SDS011;17348;50.948;10.696;2023-05-07T02:11:17;65.90;;;26.98;;
30571;SDS011;17348;50.948;10.696;2023-05-07T02:14:20;66.65;;;25.42;;
30571;SDS011;17348;50.948;10.696;2023-05-07T02:17:22;68.03;;;25.08;;
30571;SDS011;17348;50.948;10.696;2023-05-07T02:20:25;64.82;;;27.10;;
30571;SDS011;17348;50.948;10.696;2023-05-07T02:23:29;64.25;;;28.15;;
30571;SDS011;17348;50.948;10.696;2023-05-07T02:26:31;68.25;;;26.45;;
30571;SDS011;17348;50.948;10.696;2023-05-07T02:29:33;68.13;;;25.13;;
30571;SDS011;17348;50.948;10.696;2023-05-07T02:32:35;62.78;;;26.73;;
30571;SDS011;17348;50.948;10.696;2023-05-07T02:35:38;77.65;;;26.40;;
30571;SDS011;17348;50.948;10.696;2023-05-07T02:38:42;69.38;;;26.27;;
30571;SDS011;17348;50.948;10.696;2023-05-07T02:41:44;66.32;;;27.33;;
30571;SDS011;17348;50.948;10.696;2023-05-07T02:44:46;69.25;;;26.52;;
30571;SDS011;17348;50.948;10.696;2023-05-07T02:47:49;82.68;;;27.02;;
30571;SDS011;17348;50.948;10.696;2023-05-07T02:50:51;69.93;;;26.58;;
30571;SDS011;17348;50.948;10.696;2023-05-07T02:53:55;71.22;;;26.38;;
30571;SDS011;17348;50.948;10.696;2023-05-07T02:56:57;73.43;;;25.45;;
30571;SDS011;17348;50.948;10.696;2023-05-07T03:00:09;61.13;;;22.50;;
30571;SDS011;17348;50.948;10.696;2023-05-07T03:03:13;67.53;;;25.10;;
30571;SDS011;17348;50.948;10.696;2023-05-07T03:06:15;59.17;;;22.73;;
30571;SDS011;17348;50.948;10.696;2023-05-07T03:09:19;68.75;;;24.10;;
30571;SDS011;17348;50.948;10.696;2023-05-07T03:12:21;61.72;;;22.67;;
30571;SDS011;17348;50.948;10.696;2023-05-07T03:15:24;70.97;;;24.17;;
30571;SDS011;17348;50.948;10.696;2023-05-07T03:18:26;61.42;;;23.70;;
30571;SDS011;17348;50.948;10.696;2023-05-07T03:21:28;63.10;;;24.17;;
30571;SDS011;17348;50.948;10.696;2023-05-07T03:24:32;58.55;;;24.63;;
30571;SDS011;17348;50.948;10.696;2023-05-07T03:27:34;72.20;;;25.85;;
30571;SDS011;17348;50.948;10.696;2023-05-07T03:30:37;62.53;;;25.58;;
30571;SDS011;17348;50.948;10.696;2023-05-07T03:33:49;66.90;;;24.08;;
30571;SDS011;17348;50.948;10.696;2023-05-07T03:36:52;59.65;;;24.27;;
30571;SDS011;17348;50.948;10.696;2023-05-07T03:39:56;60.47;;;22.92;;
30571;SDS011;17348;50.948;10.696;2023-05-07T03:42:59;52.15;;;23.13;;
30571;SDS011;17348;50.948;10.696;2023-05-07T03:46:01;63.75;;;23.55;;
30571;SDS011;17348;50.948;10.696;2023-05-07T03:49:04;63.22;;;22.98;;
30571;SDS011;17348;50.948;10.696;2023-05-07T03:52:06;61.92;;;23.58;;
30571;SDS011;17348;50.948;10.696;2023-05-07T03:55:10;53.85;;;20.90;;
30571;SDS011;17348;50.948;10.696;2023-05-07T03:58:12;56.83;;;21.98;;
30571;SDS011;17348;50.948;10.696;2023-05-07T04:01:14;58.25;;;21.73;;
30571;SDS011;17348;50.948;10.696;2023-05-07T04:04:17;48.08;;;19.55;;
30571;SDS011;17348;50.948;10.696;2023-05-07T04:07:20;55.42;;;21.63;;
30571;SDS011;17348;50.948;10.696;2023-05-07T04:10:25;45.42;;;19.20;;
30571;SDS011;17348;50.948;10.696;2023-05-07T04:13:29;47.15;;;19.30;;
30571;SDS011;17348;50.948;10.696;2023-05-07T04:16:31;54.28;;;20.33;;
30571;SDS011;17348;50.948;10.696;2023-05-07T04:19:34;49.90;;;19.17;;
30571;SDS011;17348;50.948;10.696;2023-05-07T04:22:36;47.10;;;18.70;;
30571;SDS011;17348;50.948;10.696;2023-05-07T04:25:40;50.33;;;18.90;;
30571;SDS011;17348;50.948;10.696;2023-05-07T04:28:42;48.95;;;20.55;;
30571;SDS011;17348;50.948;10.696;2023-05-07T04:31:45;57.40;;;19.38;;
30571;SDS011;17348;50.948;10.696;2023-05-07T04:34:47;52.72;;;19.92;;
30571;SDS011;17348;50.948;10.696;2023-05-07T04:37:50;60.17;;;21.30;;
30571;SDS011;17348;50.948;10.696;2023-05-07T04:40:53;49.67;;;19.17;;
30571;SDS011;17348;50.948;10.696;2023-05-07T04:43:56;54.00;;;20.10;;
30571;SDS011;17348;50.948;10.696;2023-05-07T04:46:59;59.00;;;20.85;;
30571;SDS011;17348;50.948;10.696;2023-05-07T04:50:01;48.88;;;20.60;;
30571;SDS011;17348;50.948;10.696;2023-05-07T04:53:04;59.70;;;20.50;;
30571;SDS011;17348;50.948;10.696;2023-05-07T04:56:07;56.20;;;20.73;;
30571;SDS011;17348;50.948;10.696;2023-05-07T04:59:10;55.33;;;20.65;;
30571;SDS011;17348;50.948;10.696;2023-05-07T05:02:12;57.13;;;20.90;;
30571;SDS011;17348;50.948;10.696;2023-05-07T05:05:15;50.90;;;21.65;;
30571;SDS011;17348;50.948;10.696;2023-05-07T05:08:17;53.28;;;20.85;;
30571;SDS011;17348;50.948;10.696;2023-05-07T05:11:21;56.40;;;22.38;;
30571;SDS011;17348;50.948;10.696;2023-05-07T05:14:24;53.35;;;21.10;;
30571;SDS011;17348;50.948;10.696;2023-05-07T05:17:26;54.88;;;21.85;;
30571;SDS011;17348;50.948;10.696;2023-05-07T05:20:28;54.30;;;22.30;;
30571;SDS011;17348;50.948;10.696;2023-05-07T05:23:31;60.45;;;21.83;;
30571;SDS011;17348;50.948;10.696;2023-05-07T05:26:34;52.30;;;22.85;;
30571;SDS011;17348;50.948;10.696;2023-05-07T05:29:37;52.03;;;22.27;;
30571;SDS011;17348;50.948;10.696;2023-05-07T05:32:39;60.45;;;21.02;;
30571;SDS011;17348;50.948;10.696;2023-05-07T05:35:41;58.88;;;21.33;;
30571;SDS011;17348;50.948;10.696;2023-05-07T05:38:44;51.65;;;20.20;;
30571;SDS011;17348;50.948;10.696;2023-05-07T05:41:48;54.03;;;21.65;;
30571;SDS011;17348;50.948;10.696;2023-05-07T05:44:50;57.30;;;20.13;;
30571;SDS011;17348;50.948;10.696;2023-05-07T05:47:52;54.47;;;18.90;;
30571;SDS011;17348;50.948;10.696;2023-05-07T05:50:54;44.05;;;20.05;;
30571;SDS011;17348;50.948;10.696;2023-05-07T05:53:57;36.60;;;16.75;;
30571;SDS011;17348;50.948;10.696;2023-05-07T05:57:00;46.50;;;18.15;;
30571;SDS011;17348;50.948;10.696;2023-05-07T06:00:05;44.58;;;17.50;;
30571;SDS011;17348;50.948;10.696;2023-05-07T06:03:08;36.55;;;15.80;;
30571;SDS011;17348;50.948;10.696;2023-05-07T06:06:11;38.85;;;17.65;;
30571;SDS011;17348;50.948;10.696;2023-05-07T06:09:15;38.72;;;15.65;;
30571;SDS011;17348;50.948;10.696;2023-05-07T06:12:18;34.58;;;15.35;;
30571;SDS011;17348;50.948;10.696;2023-05-07T06:15:20;35.78;;;16.00;;
30571;SDS011;17348;50.948;10.696;2023-05-07T06:18:23;35.42;;;16.98;;
30571;SDS011;17348;50.948;10.696;2023-05-07T06:21:25;37.08;;;16.17;;
30571;SDS011;17348;50.948;10.696;2023-05-07T06:24:28;35.38;;;16.40;;
30571;SDS011;17348;50.948;10.696;2023-05-07T06:27:31;34.75;;;15.70;;
30571;SDS011;17348;50.948;10.696;2023-05-07T06:30:34;41.65;;;17.58;;
30571;SDS011;17348;50.948;10.696;2023-05-07T06:33:36;41.50;;;17.70;;
30571;SDS011;17348;50.948;10.696;2023-05-07T06:36:38;40.20;;;17.95;;
30571;SDS011;17348;50.948;10.696;2023-05-07T06:39:41;42.42;;;18.40;;
30571;SDS011;17348;50.948;10.696;2023-05-07T06:42:44;41.45;;;18.45;;
30571;SDS011;17348;50.948;10.696;2023-05-07T06:45:46;43.53;;;18.63;;
30571;SDS011;17348;50.948;10.696;2023-05-07T06:48:49;41.05;;;18.13;;
30571;SDS011;17348;50.948;10.696;2023-05-07T06:51:52;44.50;;;18.83;;
30571;SDS011;17348;50.948;10.696;2023-05-07T06:54:54;44.55;;;19.30;;
30571;SDS011;17348;50.948;10.696;2023-05-07T06:57:58;45.83;;;19.48;;
30571;SDS011;17348;50.948;10.696;2023-05-07T07:01:01;46.92;;;20.95;;
30571;SDS011;17348;50.948;10.696;2023-05-07T07:04:03;46.15;;;19.83;;
30571;SDS011;17348;50.948;10.696;2023-05-07T07:07:06;41.78;;;19.13;;
30571;SDS011;17348;50.948;10.696;2023-05-07T07:10:08;44.80;;;19.38;;
30571;SDS011;17348;50.948;10.696;2023-05-07T07:13:12;48.58;;;19.50;;
30571;SDS011;17348;50.948;10.696;2023-05-07T07:16:15;43.30;;;16.85;;
30571;SDS011;17348;50.948;10.696;2023-05-07T07:19:17;39.25;;;17.20;;
30571;SDS011;17348;50.948;10.696;2023-05-07T07:22:20;45.45;;;18.23;;
30571;SDS011;17348;50.948;10.696;2023-05-07T07:25:23;41.80;;;17.83;;
30571;SDS011;17348;50.948;10.696;2023-05-07T07:28:26;38.40;;;15.98;;
30571;SDS011;17348;50.948;10.696;2023-05-07T07:31:29;39.13;;;17.58;;
30571;SDS011;17348;50.948;10.696;2023-05-07T07:34:31;44.33;;;18.55;;
30571;SDS011;17348;50.948;10.696;2023-05-07T07:37:33;42.55;;;16.55;;
30571;SDS011;17348;50.948;10.696;2023-05-07T07:40:36;35.47;;;16.60;;
30571;SDS011;17348;50.948;10.696;2023-05-07T07:43:39;35.30;;;16.20;;
30571;SDS011;17348;50.948;10.696;2023-05-07T07:46:41;42.20;;;15.05;;
30571;SDS011;17348;50.948;10.696;2023-05-07T07:49:44;40.22;;;16.73;;
30571;SDS011;17348;50.948;10.696;2023-05-07T07:52:48;38.78;;;15.18;;
30571;SDS011;17348;50.948;10.696;2023-05-07T07:55:50;37.25;;;15.48;;
30571;SDS011;17348;50.948;10.696;2023-05-07T07:58:54;37.83;;;13.48;;
30571;SDS011;17348;50.948;10.696;2023-05-07T08:01:56;31.98;;;13.70;;
30571;SDS011;17348;50.948;10.696;2023-05-07T08:04:59;30.45;;;13.32;;
30571;SDS011;17348;50.948;10.696;2023-05-07T08:08:01;32.33;;;15.10;;
30571;SDS011;17348;50.948;10.696;2023-05-07T08:11:03;31.13;;;12.25;;
30571;SDS011;17348;50.948;10.696;2023-05-07T08:14:07;27.67;;;13.00;;
30571;SDS011;17348;50.948;10.696;2023-05-07T08:17:09;28.73;;;12.15;;
30571;SDS011;17348;50.948;10.696;2023-05-07T08:20:12;30.27;;;13.23;;
30571;SDS011;17348;50.948;10.696;2023-05-07T08:23:14;27.40;;;11.82;;
30571;SDS011;17348;50.948;10.696;2023-05-07T08:26:16;31.08;;;13.07;;
30571;SDS011;17348;50.948;10.696;2023-05-07T08:29:20;27.33;;;11.45;;
30571;SDS011;17348;50.948;10.696;2023-05-07T08:32:22;28.02;;;12.32;;
30571;SDS011;17348;50.948;10.696;2023-05-07T08:35:25;30.77;;;12.88;;
30571;SDS011;17348;50.948;10.696;2023-05-07T08:38:28;30.05;;;13.88;;
30571;SDS011;17348;50.948;10.696;2023-05-07T08:41:31;27.13;;;11.43;;
30571;SDS011;17348;50.948;10.696;2023-05-07T08:44:34;27.85;;;12.48;;
30571;SDS011;17348;50.948;10.696;2023-05-07T08:47:40;26.63;;;13.48;;
30571;SDS011;17348;50.948;10.696;2023-05-07T08:50:46;24.17;;;12.35;;
30571;SDS011;17348;50.948;10.696;2023-05-07T08:53:48;25.98;;;12.80;;
30571;SDS011;17348;50.948;10.696;2023-05-07T08:56:51;32.55;;;12.77;;
30571;SDS011;17348;50.948;10.696;2023-05-07T08:59:55;23.83;;;11.77;;
30571;SDS011;17348;50.948;10.696;2023-05-07T09:02:57;27.92;;;13.00;;
30571;SDS011;17348;50.948;10.696;2023-05-07T09:06:00;28.35;;;13.13;;
30571;SDS011;17348;50.948;10.696;2023-05-07T09:09:02;28.88;;;13.30;;
30571;SDS011;17348;50.948;10.696;2023-05-07T09:12:06;24.70;;;12.85;;
30571;SDS011;17348;50.948;10.696;2023-05-07T09:15:10;27.48;;;12.77;;
30571;SDS011;17348;50.948;10.696;2023-05-07T09:18:13;29.23;;;12.57;;
30571;SDS011;17348;50.948;10.696;2023-05-07T09:21:16;24.08;;;11.88;;
30571;SDS011;17348;50.948;10.696;2023-05-07T09:24:19;30.20;;;13.27;;
30571;SDS011;17348;50.948;10.696;2023-05-07T09:27:21;24.85;;;12.02;;
30571;SDS011;17348;50.948;10.696;2023-05-07T09:30:28;27.08;;;12.38;;
30571;SDS011;17348;50.948;10.696;2023-05-07T09:33:31;25.30;;;12.85;;
30571;SDS011;17348;50.948;10.696;2023-05-07T09:36:33;26.92;;;11.90;;
30571;SDS011;17348;50.948;10.696;2023-05-07T09:39:39;28.98;;;12.77;;
30571;SDS011;17348;50.948;10.696;2023-05-07T09:42:42;27.15;;;12.23;;
30571;SDS011;17348;50.948;10.696;2023-05-07T09:45:46;30.25;;;12.55;;
30571;SDS011;17348;50.948;10.696;2023-05-07T09:48:52;22.00;;;11.23;;
30571;SDS011;17348;50.948;10.696;2023-05-07T09:51:58;25.70;;;12.95;;
30571;SDS011;17348;50.948;10.696;2023-05-07T09:55:02;31.02;;;14.35;;
30571;SDS011;17348;50.948;10.696;2023-05-07T09:58:06;29.13;;;12.93;;
30571;SDS011;17348;50.948;10.696;2023-05-07T10:01:11;28.05;;;13.65;;
30571;SDS011;17348;50.948;10.696;2023-05-07T10:04:14;31.20;;;14.40;;
30571;SDS011;17348;50.948;10.696;2023-05-07T10:07:16;30.15;;;15.50;;
30571;SDS011;17348;50.948;10.696;2023-05-07T10:10:19;27.00;;;13.55;;
30571;SDS011;17348;50.948;10.696;2023-05-07T10:13:22;26.75;;;13.57;;
30571;SDS011;17348;50.948;10.696;2023-05-07T10:16:27;27.58;;;13.38;;
30571;SDS011;17348;50.948;10.696;2023-05-07T10:19:30;28.60;;;14.73;;
30571;SDS011;17348;50.948;10.696;2023-05-07T10:22:37;32.80;;;13.60;;
30571;SDS011;17348;50.948;10.696;2023-05-07T10:25:43;27.92;;;13.35;;
30571;SDS011;17348;50.948;10.696;2023-05-07T10:28:46;27.63;;;14.68;;
30571;SDS011;17348;50.948;10.696;2023-05-07T10:31:57;28.20;;;13.27;;
30571;SDS011;17348;50.948;10.696;2023-05-07T10:35:06;28.90;;;12.75;;
30571;SDS011;17348;50.948;10.696;2023-05-07T10:38:12;30.35;;;13.65;;
30571;SDS011;17348;50.948;10.696;2023-05-07T10:41:15;32.42;;;15.48;;
30571;SDS011;17348;50.948;10.696;2023-05-07T10:44:25;34.03;;;14.45;;
30571;SDS011;17348;50.948;10.696;2023-05-07T10:47:30;25.73;;;13.35;;
30571;SDS011;17348;50.948;10.696;2023-05-07T10:50:32;27.65;;;13.77;;
30571;SDS011;17348;50.948;10.696;2023-05-07T10:53:35;27.23;;;13.45;;
30571;SDS011;17348;50.948;10.696;2023-05-07T10:56:37;23.15;;;12.95;;
30571;SDS011;17348;50.948;10.696;2023-05-07T10:59:40;26.65;;;12.93;;
30571;SDS011;17348;50.948;10.696;2023-05-07T11:06:09;33.10;;;12.02;;
30571;SDS011;17348;50.948;10.696;2023-05-07T11:09:13;24.42;;;12.10;;
30571;SDS011;17348;50.948;10.696;2023-05-07T11:12:15;30.02;;;12.82;;
30571;SDS011;17348;50.948;10.696;2023-05-07T11:15:33;24.60;;;13.15;;
30571;SDS011;17348;50.948;10.696;2023-05-07T11:18:47;22.67;;;12.45;;
30571;SDS011;17348;50.948;10.696;2023-05-07T11:21:51;24.98;;;12.73;;
30571;SDS011;17348;50.948;10.696;2023-05-07T11:24:54;27.17;;;13.50;;
30571;SDS011;17348;50.948;10.696;2023-05-07T11:28:03;31.90;;;13.77;;
30571;SDS011;17348;50.948;10.696;2023-05-07T11:31:07;27.93;;;13.73;;
30571;SDS011;17348;50.948;10.696;2023-05-07T11:34:13;30.58;;;14.18;;
30571;SDS011;17348;50.948;10.696;2023-05-07T11:37:22;26.50;;;14.27;;
30571;SDS011;17348;50.948;10.696;2023-05-07T11:40:25;27.20;;;13.85;;
30571;SDS011;17348;50.948;10.696;2023-05-07T11:43:29;21.27;;;11.93;;
30571;SDS011;17348;50.948;10.696;2023-05-07T11:46:31;23.85;;;12.77;;
30571;SDS011;17348;50.948;10.696;2023-05-07T11:49:39;24.15;;;13.23;;
30571;SDS011;17348;50.948;10.696;2023-05-07T11:52:49;27.30;;;12.90;;
30571;SDS011;17348;50.948;10.696;2023-05-07T11:55:52;25.00;;;12.07;;
30571;SDS011;17348;50.948;10.696;2023-05-07T11:58:55;23.70;;;12.18;;
30571;SDS011;17348;50.948;10.696;2023-05-07T12:01:57;23.23;;;12.50;;
30571;SDS011;17348;50.948;10.696;2023-05-07T12:05:02;23.38;;;12.88;;
30571;SDS011;17348;50.948;10.696;2023-05-07T12:08:04;21.75;;;12.95;;
30571;SDS011;17348;50.948;10.696;2023-05-07T12:11:07;21.77;;;13.10;;
30571;SDS011;17348;50.948;10.696;2023-05-07T12:14:11;21.75;;;12.13;;
30571;SDS011;17348;50.948;10.696;2023-05-07T12:17:16;20.88;;;12.30;;
30571;SDS011;17348;50.948;10.696;2023-05-07T12:20:20;27.52;;;12.80;;
30571;SDS011;17348;50.948;10.696;2023-05-07T12:23:22;23.42;;;12.38;;
30571;SDS011;17348;50.948;10.696;2023-05-07T12:26:25;22.52;;;12.48;;
30571;SDS011;17348;50.948;10.696;2023-05-07T12:29:28;21.75;;;12.02;;
30571;SDS011;17348;50.948;10.696;2023-05-07T12:32:31;21.90;;;12.60;;
30571;SDS011;17348;50.948;10.696;2023-05-07T12:35:38;22.48;;;11.40;;
30571;SDS011;17348;50.948;10.696;2023-05-07T12:38:41;21.90;;;12.18;;
30571;SDS011;17348;50.948;10.696;2023-05-07T12:45:08;25.67;;;13.35;;
30571;SDS011;17348;50.948;10.696;2023-05-07T12:48:11;24.02;;;13.38;;
30571;SDS011;17348;50.948;10.696;2023-05-07T12:51:15;21.77;;;11.85;;
30571;SDS011;17348;50.948;10.696;2023-05-07T12:54:27;21.92;;;11.63;;
30571;SDS011;17348;50.948;10.696;2023-05-07T12:57:30;29.08;;;13.55;;
30571;SDS011;17348;50.948;10.696;2023-05-07T13:00:39;21.60;;;12.82;;
30571;SDS011;17348;50.948;10.696;2023-05-07T13:03:41;24.58;;;11.98;;
30571;SDS011;17348;50.948;10.696;2023-05-07T13:06:50;23.92;;;12.07;;
30571;SDS011;17348;50.948;10.696;2023-05-07T13:09:53;21.98;;;11.65;;
30571;SDS011;17348;50.948;10.696;2023-05-07T13:12:55;24.52;;;12.18;;
30571;SDS011;17348;50.948;10.696;2023-05-07T13:15:58;23.30;;;12.05;;
30571;SDS011;17348;50.948;10.696;2023-05-07T13:19:00;24.73;;;13.02;;
30571;SDS011;17348;50.948;10.696;2023-05-07T13:22:04;20.55;;;10.77;;
30571;SDS011;17348;50.948;10.696;2023-05-07T13:25:07;20.25;;;11.18;;
30571;SDS011;17348;50.948;10.696;2023-05-07T13:28:10;22.10;;;11.75;;
30571;SDS011;17348;50.948;10.696;2023-05-07T13:31:13;19.85;;;11.65;;
30571;SDS011;17348;50.948;10.696;2023-05-07T13:34:15;18.30;;;10.35;;
30571;SDS011;17348;50.948;10.696;2023-05-07T13:37:19;26.17;;;11.00;;
30571;SDS011;17348;50.948;10.696;2023-05-07T13:40:21;17.83;;;10.02;;
30571;SDS011;17348;50.948;10.696;2023-05-07T13:43:24;20.65;;;10.73;;
30571;SDS011;17348;50.948;10.696;2023-05-07T13:46:26;19.23;;;11.20;;
30571;SDS011;17348;50.948;10.696;2023-05-07T13:49:30;19.25;;;11.10;;
30571;SDS011;17348;50.948;10.696;2023-05-07T13:52:34;18.80;;;10.90;;
30571;SDS011;17348;50.948;10.696;2023-05-07T13:55:36;20.58;;;10.75;;
30571;SDS011;17348;50.948;10.696;2023-05-07T13:58:38;19.05;;;10.85;;
30571;SDS011;17348;50.948;10.696;2023-05-07T14:01:41;18.23;;;9.90;;
30571;SDS011;17348;50.948;10.696;2023-05-07T14:04:43;14.05;;;8.95;;
30571;SDS011;17348;50.948;10.696;2023-05-07T14:07:47;16.92;;;9.32;;
30571;SDS011;17348;50.948;10.696;2023-05-07T14:10:52;14.40;;;9.00;;
30571;SDS011;17348;50.948;10.696;2023-05-07T14:13:54;16.15;;;9.20;;
30571;SDS011;17348;50.948;10.696;2023-05-07T14:16:57;16.95;;;9.18;;
30571;SDS011;17348;50.948;10.696;2023-05-07T14:19:59;15.57;;;9.65;;
30571;SDS011;17348;50.948;10.696;2023-05-07T14:23:03;14.88;;;9.07;;
30571;SDS011;17348;50.948;10.696;2023-05-07T14:26:06;15.02;;;8.32;;
30571;SDS011;17348;50.948;10.696;2023-05-07T14:29:11;15.52;;;8.45;;
30571;SDS011;17348;50.948;10.696;2023-05-07T14:32:13;13.98;;;9.27;;
30571;SDS011;17348;50.948;10.696;2023-05-07T14:35:16;16.65;;;8.95;;
30571;SDS011;17348;50.948;10.696;2023-05-07T14:38:20;14.75;;;9.10;;
30571;SDS011;17348;50.948;10.696;2023-05-07T14:41:22;17.33;;;9.20;;
30571;SDS011;17348;50.948;10.696;2023-05-07T14:44:25;16.38;;;8.93;;
30571;SDS011;17348;50.948;10.696;2023-05-07T14:47:27;14.55;;;8.77;;
30571;SDS011;17348;50.948;10.696;2023-05-07T14:50:31;13.40;;;9.20;;
30571;SDS011;17348;50.948;10.696;2023-05-07T14:53:35;14.98;;;8.45;;
30571;SDS011;17348;50.948;10.696;2023-05-07T14:56:37;19.02;;;8.32;;
30571;SDS011;17348;50.948;10.696;2023-05-07T14:59:39;13.00;;;8.68;;
30571;SDS011;17348;50.948;10.696;2023-05-07T15:02:44;13.20;;;7.72;;
30571;SDS011;17348;50.948;10.696;2023-05-07T15:05:48;13.43;;;8.10;;
30571;SDS011;17348;50.948;10.696;2023-05-07T15:08:53;12.70;;;7.88;;
30571;SDS011;17348;50.948;10.696;2023-05-07T15:11:55;13.85;;;7.35;;
30571;SDS011;17348;50.948;10.696;2023-05-07T15:15:00;11.02;;;7.50;;
30571;SDS011;17348;50.948;10.696;2023-05-07T15:18:03;9.45;;;6.35;;
30571;SDS011;17348;50.948;10.696;2023-05-07T15:21:06;17.13;;;8.43;;
30571;SDS011;17348;50.948;10.696;2023-05-07T15:24:10;14.75;;;8.43;;
30571;SDS011;17348;50.948;10.696;2023-05-07T15:27:12;13.38;;;7.68;;
30571;SDS011;17348;50.948;10.696;2023-05-07T15:30:15;14.00;;;8.43;;
30571;SDS011;17348;50.948;10.696;2023-05-07T15:33:19;15.82;;;8.10;;
30571;SDS011;17348;50.948;10.696;2023-05-07T15:36:21;11.90;;;6.97;;
30571;SDS011;17348;50.948;10.696;2023-05-07T15:39:26;11.13;;;7.35;;
30571;SDS011;17348;50.948;10.696;2023-05-07T15:42:28;11.02;;;6.95;;
30571;SDS011;17348;50.948;10.696;2023-05-07T15:45:31;13.57;;;7.00;;
30571;SDS011;17348;50.948;10.696;2023-05-07T15:48:33;13.85;;;8.30;;
30571;SDS011;17348;50.948;10.696;2023-05-07T15:51:41;12.75;;;7.10;;
30571;SDS011;17348;50.948;10.696;2023-05-07T15:54:46;13.13;;;7.97;;
30571;SDS011;17348;50.948;10.696;2023-05-07T15:57:49;13.32;;;8.10;;
30571;SDS011;17348;50.948;10.696;2023-05-07T16:00:54;11.93;;;7.60;;
30571;SDS011;17348;50.948;10.696;2023-05-07T16:03:56;10.70;;;7.45;;
30571;SDS011;17348;50.948;10.696;2023-05-07T16:06:59;12.30;;;7.78;;
30571;SDS011;17348;50.948;10.696;2023-05-07T16:10:03;14.30;;;8.02;;
30571;SDS011;17348;50.948;10.696;2023-05-07T16:13:07;11.93;;;7.57;;
30571;SDS011;17348;50.948;10.696;2023-05-07T16:16:09;12.43;;;7.90;;
30571;SDS011;17348;50.948;10.696;2023-05-07T16:19:12;10.50;;;6.70;;
30571;SDS011;17348;50.948;10.696;2023-05-07T16:22:15;10.05;;;6.88;;
30571;SDS011;17348;50.948;10.696;2023-05-07T16:25:18;7.93;;;5.95;;
30571;SDS011;17348;50.948;10.696;2023-05-07T16:28:21;9.57;;;6.93;;
30571;SDS011;17348;50.948;10.696;2023-05-07T16:31:24;9.80;;;7.30;;
30571;SDS011;17348;50.948;10.696;2023-05-07T16:34:26;10.48;;;6.60;;
30571;SDS011;17348;50.948;10.696;2023-05-07T16:37:28;13.20;;;8.82;;
30571;SDS011;17348;50.948;10.696;2023-05-07T16:40:38;11.80;;;7.63;;
30571;SDS011;17348;50.948;10.696;2023-05-07T16:43:43;11.82;;;7.25;;
30571;SDS011;17348;50.948;10.696;2023-05-07T16:46:46;9.82;;;7.22;;
30571;SDS011;17348;50.948;10.696;2023-05-07T16:49:49;10.80;;;6.93;;
30571;SDS011;17348;50.948;10.696;2023-05-07T16:52:51;10.32;;;7.57;;
30571;SDS011;17348;50.948;10.696;2023-05-07T16:55:56;13.00;;;9.38;;
30571;SDS011;17348;50.948;10.696;2023-05-07T16:58:59;12.65;;;8.00;;
30571;SDS011;17348;50.948;10.696;2023-05-07T17:02:01;13.80;;;8.18;;
30571;SDS011;17348;50.948;10.696;2023-05-07T17:05:12;13.02;;;7.22;;
30571;SDS011;17348;50.948;10.696;2023-05-07T17:08:14;16.02;;;8.20;;
30571;SDS011;17348;50.948;10.696;2023-05-07T17:11:18;16.08;;;7.72;;
30571;SDS011;17348;50.948;10.696;2023-05-07T17:14:20;13.10;;;7.68;;
30571;SDS011;17348;50.948;10.696;2023-05-07T17:17:23;11.45;;;7.75;;
30571;SDS011;17348;50.948;10.696;2023-05-07T17:20:25;13.23;;;7.78;;
30571;SDS011;17348;50.948;10.696;2023-05-07T17:23:28;13.20;;;8.30;;
30571;SDS011;17348;50.948;10.696;2023-05-07T17:26:32;13.35;;;8.00;;
30571;SDS011;17348;50.948;10.696;2023-05-07T17:29:35;18.10;;;8.85;;
30571;SDS011;17348;50.948;10.696;2023-05-07T17:32:38;14.50;;;9.45;;
30571;SDS011;17348;50.948;10.696;2023-05-07T17:35:40;20.52;;;10.23;;
30571;SDS011;17348;50.948;10.696;2023-05-07T17:38:42;13.07;;;8.38;;
30571;SDS011;17348;50.948;10.696;2023-05-07T17:41:46;17.00;;;10.00;;
30571;SDS011;17348;50.948;10.696;2023-05-07T17:44:49;12.15;;;8.40;;
30571;SDS011;17348;50.948;10.696;2023-05-07T17:47:51;15.65;;;9.73;;